createdAt,value
2018-01-24T00:01:27.950Z,7.70
2018-01-24T00:03:56.476Z,7.60
2018-01-24T00:06:25.023Z,7.60
2018-01-24T00:08:53.562Z,7.60
2018-01-24T00:11:23.028Z,7.60
2018-01-24T00:13:51.583Z,7.50
2018-01-24T00:16:20.116Z,7.50
2018-01-24T00:18:49.234Z,7.60
2018-01-24T00:21:17.783Z,7.60
2018-01-24T00:23:46.310Z,7.50
2018-01-24T00:26:14.831Z,7.60
2018-01-24T00:28:43.387Z,7.50
2018-01-24T00:31:11.918Z,7.50
2018-01-24T00:33:41.202Z,7.60
2018-01-24T00:36:09.721Z,7.50
2018-01-24T00:38:39.033Z,7.60
2018-01-24T00:41:07.534Z,7.60
2018-01-24T00:43:36.095Z,7.60
2018-01-24T00:46:04.631Z,7.70
2018-01-24T00:48:33.177Z,7.70
2018-01-24T00:51:01.687Z,7.70
2018-01-24T00:53:30.228Z,7.70
2018-01-24T00:55:58.777Z,7.70
2018-01-24T00:58:27.332Z,7.70
2018-01-24T01:00:55.891Z,7.70
2018-01-24T01:03:24.386Z,7.80
2018-01-24T01:05:52.939Z,7.80
2018-01-24T01:08:21.483Z,7.80
2018-01-24T01:10:50.007Z,7.90
2018-01-24T01:13:18.522Z,7.90
2018-01-24T01:15:47.081Z,7.90
2018-01-24T01:18:15.650Z,7.90
2018-01-24T01:20:44.182Z,7.90
2018-01-24T01:23:12.738Z,7.90
2018-01-24T01:25:41.278Z,7.90
2018-01-24T01:28:10.575Z,7.90
2018-01-24T01:30:39.886Z,7.90
2018-01-24T01:33:08.398Z,7.90
2018-01-24T01:35:36.936Z,8.00
2018-01-24T01:38:06.231Z,8.00
2018-01-24T01:40:35.513Z,8.00
2018-01-24T01:43:03.897Z,8.00
2018-01-24T01:45:32.438Z,8.00
2018-01-24T01:48:00.977Z,8.00
2018-01-24T01:50:30.130Z,8.00
2018-01-24T01:52:58.473Z,8.10
2018-01-24T01:55:27.033Z,8.00
2018-01-24T01:57:56.331Z,8.10
2018-01-24T02:00:25.467Z,8.10
2018-01-24T02:02:54.170Z,8.00
2018-01-24T02:05:22.697Z,8.10
2018-01-24T02:07:51.953Z,8.10
2018-01-24T02:10:20.482Z,8.10
2018-01-24T02:12:49.809Z,8.10
2018-01-24T02:15:18.321Z,8.10
2018-01-24T02:17:46.865Z,8.10
2018-01-24T02:20:15.093Z,8.10
2018-01-24T02:22:43.569Z,8.10
2018-01-24T02:25:12.167Z,8.10
2018-01-24T02:27:40.715Z,8.10
2018-01-24T02:30:08.929Z,8.20
2018-01-24T02:32:37.461Z,8.20
2018-01-24T02:35:06.067Z,8.20
2018-01-24T02:37:34.757Z,8.10
2018-01-24T02:40:03.048Z,8.10
2018-01-24T02:42:31.589Z,8.10
2018-01-24T02:45:00.085Z,8.00
2018-01-24T02:47:28.605Z,8.00
2018-01-24T02:49:57.163Z,7.90
2018-01-24T02:52:25.666Z,7.90
2018-01-24T02:54:54.200Z,7.90
2018-01-24T02:57:22.758Z,7.90
2018-01-24T02:59:51.288Z,7.90
2018-01-24T03:02:19.839Z,8.00
2018-01-24T03:04:48.364Z,8.00
2018-01-24T03:07:16.916Z,8.00
2018-01-24T03:09:45.460Z,8.00
2018-01-24T03:12:14.745Z,8.10
2018-01-24T03:14:43.267Z,8.00
2018-01-24T03:17:11.825Z,8.10
2018-01-24T03:19:40.377Z,8.10
2018-01-24T03:22:08.880Z,8.10
2018-01-24T03:24:38.227Z,8.20
2018-01-24T03:27:06.794Z,8.20
2018-01-24T03:29:35.342Z,8.20
2018-01-24T03:32:03.897Z,8.20
2018-01-24T03:34:32.436Z,8.20
2018-01-24T03:37:01.878Z,8.20
2018-01-24T03:39:30.386Z,8.20
2018-01-24T03:41:58.930Z,8.20
2018-01-24T03:44:27.449Z,8.30
2018-01-24T03:46:55.985Z,8.20
2018-01-24T03:49:24.513Z,8.20
2018-01-24T03:51:53.063Z,8.20
2018-01-24T03:54:21.617Z,8.30
2018-01-24T03:56:50.144Z,8.20
2018-01-24T03:59:18.678Z,8.20
2018-01-24T04:01:47.213Z,8.20
2018-01-24T04:04:15.786Z,8.20
2018-01-24T04:06:44.286Z,8.20
2018-01-24T04:09:12.839Z,8.20
2018-01-24T04:11:41.366Z,8.20
2018-01-24T04:14:10.627Z,8.20
2018-01-24T04:16:39.183Z,8.20
2018-01-24T04:19:07.722Z,8.20
2018-01-24T04:21:36.201Z,8.20
2018-01-24T04:24:04.439Z,8.20
2018-01-24T04:26:32.660Z,8.20
2018-01-24T04:29:01.969Z,8.30
2018-01-24T04:31:31.265Z,8.30
2018-01-24T04:34:00.547Z,8.30
2018-01-24T04:36:29.108Z,8.30
2018-01-24T04:38:57.661Z,8.30
2018-01-24T04:41:26.214Z,8.30
2018-01-24T04:43:55.528Z,8.40
2018-01-24T04:46:24.070Z,8.30
2018-01-24T04:48:52.612Z,8.40
2018-01-24T04:51:20.954Z,8.40
2018-01-24T04:53:50.241Z,8.40
2018-01-24T04:56:18.805Z,8.40
2018-01-24T04:58:47.345Z,8.40
2018-01-24T05:01:15.750Z,8.40
2018-01-24T05:03:44.269Z,8.40
2018-01-24T05:06:12.765Z,8.40
2018-01-24T05:08:41.137Z,8.50
2018-01-24T05:11:09.503Z,8.50
2018-01-24T05:13:37.818Z,8.50
2018-01-24T05:16:06.202Z,8.50
2018-01-24T05:18:34.738Z,8.50
2018-01-24T05:21:03.089Z,8.50
2018-01-24T05:23:31.633Z,8.50
2018-01-24T05:26:00.940Z,8.50
2018-01-24T05:28:29.419Z,8.50
2018-01-24T05:30:57.949Z,8.50
2018-01-24T05:33:26.493Z,8.50
2018-01-24T05:35:54.965Z,8.50
2018-01-24T05:38:23.498Z,8.60
2018-01-24T05:40:52.014Z,8.60
2018-01-24T05:43:20.557Z,8.60
2018-01-24T05:45:49.109Z,8.60
2018-01-24T05:48:17.647Z,8.60
2018-01-24T05:50:46.184Z,8.60
2018-01-24T05:53:14.720Z,8.70
2018-01-24T05:55:44.037Z,8.70
2018-01-24T05:58:12.572Z,8.70
2018-01-24T06:00:41.111Z,8.60
2018-01-24T06:03:09.637Z,8.60
2018-01-24T06:05:38.128Z,8.60
2018-01-24T06:08:06.655Z,8.60
2018-01-24T06:10:35.208Z,8.60
2018-01-24T06:13:04.537Z,8.60
2018-01-24T06:15:33.089Z,8.60
2018-01-24T06:18:02.397Z,8.70
2018-01-24T06:20:31.650Z,8.70
2018-01-24T06:23:00.200Z,8.70
2018-01-24T06:25:28.763Z,8.70
2018-01-24T06:27:58.021Z,8.80
2018-01-24T06:30:26.579Z,8.80
2018-01-24T06:32:55.125Z,8.80
2018-01-24T06:35:24.623Z,8.80
2018-01-24T06:37:53.210Z,8.80
2018-01-24T06:40:22.503Z,8.80
2018-01-24T06:42:51.959Z,8.80
2018-01-24T06:45:20.492Z,8.80
2018-01-24T06:47:49.085Z,8.80
2018-01-24T06:50:17.769Z,8.80
2018-01-24T06:52:47.086Z,8.80
2018-01-24T06:55:15.629Z,8.80
2018-01-24T06:57:44.206Z,8.80
2018-01-24T07:00:12.766Z,8.80
2018-01-24T07:02:41.309Z,8.90
2018-01-24T07:05:09.847Z,8.90
2018-01-24T07:07:38.386Z,9.00
2018-01-24T07:10:06.970Z,8.90
2018-01-24T07:12:46.686Z,9.00
2018-01-24T07:15:15.990Z,9.00
2018-01-24T07:17:45.286Z,9.00
2018-01-24T07:20:14.600Z,9.00
2018-01-24T07:22:43.156Z,9.00
2018-01-24T07:25:11.698Z,9.00
2018-01-24T07:27:40.241Z,9.00
2018-01-24T07:30:08.744Z,9.00
2018-01-24T07:32:37.315Z,9.10
2018-01-24T07:35:05.715Z,9.10
2018-01-24T07:37:34.238Z,9.10
2018-01-24T07:40:02.782Z,9.10
2018-01-24T07:42:31.304Z,9.10
2018-01-24T07:44:59.805Z,9.20
2018-01-24T07:47:29.122Z,9.20
2018-01-24T07:49:57.680Z,9.20
2018-01-24T07:52:27.058Z,9.30
2018-01-24T07:54:55.623Z,9.30
2018-01-24T07:57:24.214Z,9.40
2018-01-24T07:59:52.746Z,9.40
2018-01-24T08:02:21.307Z,9.40
2018-01-24T08:04:49.688Z,9.40
2018-01-24T08:07:18.175Z,9.40
2018-01-24T08:09:47.326Z,9.30
2018-01-24T08:12:15.862Z,9.30
2018-01-24T08:14:45.137Z,9.30
2018-01-24T08:17:13.694Z,9.30
2018-01-24T08:19:42.229Z,9.30
2018-01-24T08:22:11.507Z,9.40
2018-01-24T08:24:40.057Z,9.40
2018-01-24T08:27:08.979Z,9.40
2018-01-24T08:29:37.684Z,9.40
2018-01-24T08:32:07.001Z,9.40
2018-01-24T08:34:35.543Z,9.40
2018-01-24T08:37:04.030Z,9.40
2018-01-24T08:39:32.597Z,9.40
2018-01-24T08:44:31.611Z,9.50
2018-01-24T08:47:00.187Z,9.50
2018-01-24T08:49:28.662Z,9.60
2018-01-24T08:51:57.215Z,9.60
2018-01-24T08:54:25.750Z,9.60
2018-01-24T08:56:54.317Z,9.60
2018-01-24T08:59:22.883Z,9.70
2018-01-24T09:01:51.420Z,9.70
2018-01-24T09:04:20.443Z,9.80
2018-01-24T09:06:48.970Z,9.80
2018-01-24T09:09:17.517Z,9.80
2018-01-24T09:11:46.047Z,9.80
2018-01-24T09:14:15.348Z,9.70
2018-01-24T09:16:43.914Z,9.70
2018-01-24T09:19:12.513Z,9.70
2018-01-24T09:21:41.057Z,9.70
2018-01-24T09:24:09.602Z,9.70
2018-01-24T09:26:38.883Z,9.70
2018-01-24T09:29:08.226Z,9.70
2018-01-24T09:31:36.759Z,9.70
2018-01-24T09:34:04.918Z,9.80
2018-01-24T09:36:33.458Z,9.80
2018-01-24T09:39:02.001Z,9.80
2018-01-24T09:41:31.299Z,9.90
2018-01-24T09:44:05.617Z,9.80
2018-01-24T09:46:34.942Z,10.00
2018-01-24T09:49:03.489Z,10.00
2018-01-24T09:51:32.034Z,10.10
2018-01-24T09:54:00.773Z,10.10
2018-01-24T09:56:29.311Z,10.20
2018-01-24T09:58:57.871Z,10.20
2018-01-24T10:01:26.421Z,10.20
2018-01-24T10:03:55.951Z,10.40
2018-01-24T10:06:30.682Z,10.30
2018-01-24T10:08:59.228Z,10.30
2018-01-24T10:11:27.751Z,10.40
2018-01-24T10:13:56.293Z,10.40
2018-01-24T10:16:24.856Z,10.40
2018-01-24T10:18:53.364Z,10.40
2018-01-24T10:21:21.947Z,10.50
2018-01-24T10:23:50.599Z,10.50
2018-01-24T10:26:19.098Z,10.50
2018-01-24T10:28:51.401Z,10.40
2018-01-24T10:31:19.941Z,10.40
2018-01-24T10:33:48.525Z,10.50
2018-01-24T10:36:17.068Z,10.50
2018-01-24T10:38:45.646Z,10.60
2018-01-24T10:41:14.143Z,10.60
2018-01-24T10:43:42.668Z,10.60
2018-01-24T10:46:11.218Z,10.70
2018-01-24T10:48:39.774Z,10.70
2018-01-24T10:51:08.332Z,10.70
2018-01-24T10:53:37.708Z,10.80
2018-01-24T10:56:06.200Z,10.80
2018-01-24T10:58:34.773Z,10.90
2018-01-24T11:01:03.347Z,11.00
2018-01-24T11:03:31.850Z,11.10
2018-01-24T11:06:00.402Z,11.30
2018-01-24T11:08:28.662Z,11.20
2018-01-24T11:10:57.165Z,11.20
2018-01-24T11:13:29.721Z,11.10
2018-01-24T11:15:58.262Z,11.10
2018-01-24T11:18:27.568Z,11.10
2018-01-24T11:20:56.890Z,11.00
2018-01-24T11:23:25.429Z,11.00
2018-01-24T11:25:54.737Z,11.00
2018-01-24T11:28:23.283Z,11.00
2018-01-24T11:30:51.871Z,11.10
2018-01-24T11:33:20.386Z,11.10
2018-01-24T11:35:48.955Z,11.10
2018-01-24T11:38:17.507Z,11.10
2018-01-24T11:40:46.022Z,11.00
2018-01-24T11:43:14.546Z,11.10
2018-01-24T11:45:43.137Z,11.20
2018-01-24T11:48:11.630Z,11.20
2018-01-24T11:50:40.969Z,11.40
2018-01-24T11:53:09.506Z,11.30
2018-01-24T11:55:38.069Z,11.40
2018-01-24T11:58:07.365Z,11.80
2018-01-24T12:00:35.905Z,11.80
2018-01-24T12:03:04.434Z,11.90
2018-01-24T12:05:33.737Z,11.60
2018-01-24T12:08:02.317Z,11.60
2018-01-24T12:10:30.878Z,11.40
2018-01-24T12:12:59.417Z,11.30
2018-01-24T12:15:27.922Z,11.20
2018-01-24T12:17:56.481Z,11.20
2018-01-24T12:20:25.023Z,11.20
2018-01-24T12:22:54.315Z,11.20
2018-01-24T12:25:23.615Z,11.20
2018-01-24T12:27:52.947Z,11.10
2018-01-24T12:30:21.513Z,11.10
2018-01-24T12:32:50.818Z,11.20
2018-01-24T12:35:19.341Z,11.20
2018-01-24T12:37:47.873Z,11.30
2018-01-24T12:40:16.386Z,11.40
2018-01-24T12:42:44.894Z,11.50
2018-01-24T12:45:13.450Z,11.50
2018-01-24T12:47:41.955Z,11.60
2018-01-24T12:50:10.530Z,11.60
2018-01-24T12:52:39.061Z,11.50
2018-01-24T12:55:08.329Z,11.50
2018-01-24T12:57:36.899Z,11.40
2018-01-24T13:00:05.137Z,11.40
2018-01-24T13:02:33.669Z,11.50
2018-01-24T13:05:02.210Z,11.50
2018-01-24T13:07:30.766Z,11.40
2018-01-24T13:10:00.075Z,11.40
2018-01-24T13:12:28.623Z,11.40
2018-01-24T13:14:57.180Z,11.40
2018-01-24T13:17:25.703Z,11.40
2018-01-24T13:19:55.026Z,11.40
2018-01-24T13:22:23.566Z,11.40
2018-01-24T13:24:52.114Z,11.40
2018-01-24T13:27:20.662Z,11.40
2018-01-24T13:29:49.974Z,11.40
2018-01-24T13:32:18.490Z,11.40
2018-01-24T13:34:47.032Z,11.40
2018-01-24T13:37:16.339Z,11.40
2018-01-24T13:39:44.999Z,11.30
2018-01-24T13:42:13.525Z,11.30
2018-01-24T13:44:42.074Z,11.30
2018-01-24T13:47:11.382Z,11.30
2018-01-24T13:49:40.689Z,11.30
2018-01-24T13:52:09.232Z,11.30
2018-01-24T13:54:37.750Z,11.30
2018-01-24T13:57:06.285Z,11.30
2018-01-24T13:59:34.843Z,11.20
2018-01-24T14:02:03.339Z,11.20
2018-01-24T14:04:31.886Z,11.20
2018-01-24T14:07:00.423Z,11.20
2018-01-24T14:09:28.957Z,11.20
2018-01-24T14:11:57.535Z,11.20
2018-01-24T14:14:25.870Z,11.20
2018-01-24T14:16:54.353Z,11.20
2018-01-24T14:19:22.913Z,11.20
2018-01-24T14:21:51.436Z,11.20
2018-01-24T14:24:20.179Z,11.20
2018-01-24T14:26:48.681Z,11.20
2018-01-24T14:29:17.235Z,11.20
2018-01-24T14:31:45.775Z,11.10
2018-01-24T14:34:15.107Z,11.10
2018-01-24T14:36:44.441Z,11.10
2018-01-24T14:39:12.962Z,11.10
2018-01-24T14:41:42.299Z,11.10
2018-01-24T14:44:10.873Z,11.10
2018-01-24T14:46:39.401Z,11.10
2018-01-24T14:49:07.938Z,11.10
2018-01-24T14:51:36.477Z,11.00
2018-01-24T14:54:05.802Z,11.00
2018-01-24T14:56:34.331Z,11.00
2018-01-24T14:59:02.927Z,11.00
2018-01-24T15:01:31.442Z,11.00
2018-01-24T15:04:00.790Z,11.00
2018-01-24T15:06:29.322Z,11.00
2018-01-24T15:08:58.636Z,11.00
2018-01-24T15:11:27.178Z,10.90
2018-01-24T15:13:56.023Z,11.00
2018-01-24T15:16:24.582Z,11.00
2018-01-24T15:18:53.130Z,11.00
2018-01-24T15:21:21.738Z,11.00
2018-01-24T15:23:50.210Z,11.00
2018-01-24T15:26:19.512Z,10.90
2018-01-24T15:28:48.825Z,10.90
2018-01-24T15:31:17.315Z,10.90
2018-01-24T15:33:45.846Z,10.90
2018-01-24T15:36:14.421Z,10.90
2018-01-24T15:38:42.918Z,10.90
2018-01-24T15:41:11.476Z,10.90
2018-01-24T15:43:40.005Z,10.90
2018-01-24T15:46:09.270Z,10.90
2018-01-24T15:48:37.665Z,10.80
2018-01-24T15:51:06.261Z,10.80
2018-01-24T15:53:34.800Z,10.80
2018-01-24T15:56:03.353Z,10.80
2018-01-24T15:58:31.907Z,10.80
2018-01-24T16:01:00.440Z,10.90
2018-01-24T16:03:28.978Z,10.80
2018-01-24T16:05:58.270Z,10.80
2018-01-24T16:08:26.790Z,10.80
2018-01-24T16:10:55.336Z,10.90
2018-01-24T16:13:23.890Z,10.80
2018-01-24T16:15:52.993Z,10.80
2018-01-24T16:18:21.598Z,10.80
2018-01-24T16:20:50.917Z,10.80
2018-01-24T16:23:20.213Z,10.80
2018-01-24T16:25:49.568Z,10.80
2018-01-24T16:28:18.104Z,10.70
2018-01-24T16:30:47.397Z,10.80
2018-01-24T16:33:16.702Z,10.70
2018-01-24T16:35:45.343Z,10.70
2018-01-24T16:38:13.885Z,10.60
2018-01-24T16:40:42.385Z,10.50
2018-01-24T16:43:10.915Z,10.40
2018-01-24T16:45:40.513Z,10.40
2018-01-24T16:48:09.433Z,10.30
2018-01-24T16:50:38.006Z,10.40
2018-01-24T16:53:07.261Z,10.30
2018-01-24T16:55:35.812Z,10.20
2018-01-24T16:58:04.499Z,10.30
2018-01-24T17:00:32.986Z,10.40
2018-01-24T17:03:01.505Z,10.40
2018-01-24T17:05:30.048Z,10.50
2018-01-24T17:07:58.538Z,10.50
2018-01-24T17:10:27.084Z,10.60
2018-01-24T17:12:55.628Z,10.60
2018-01-24T17:15:24.179Z,10.60
2018-01-24T17:17:52.775Z,10.50
2018-01-24T17:20:21.335Z,10.40
2018-01-24T17:22:49.837Z,10.30
2018-01-24T17:25:18.413Z,10.30
2018-01-24T17:27:47.035Z,10.30
2018-01-24T17:30:15.566Z,10.30
2018-01-24T17:32:44.282Z,10.30
2018-01-24T17:35:12.854Z,10.30
2018-01-24T17:37:41.390Z,10.20
2018-01-24T17:40:10.689Z,10.10
2018-01-24T17:42:40.019Z,10.10
2018-01-24T17:45:08.551Z,10.10
2018-01-24T17:47:37.129Z,10.10
2018-01-24T17:50:05.659Z,10.20
2018-01-24T17:52:34.243Z,10.20
2018-01-24T17:55:21.089Z,10.10
2018-01-24T17:57:49.597Z,10.10
2018-01-24T18:00:18.166Z,10.10
2018-01-24T18:02:46.710Z,10.20
2018-01-24T18:05:15.245Z,10.10
2018-01-24T18:07:43.756Z,10.10
2018-01-24T18:10:13.087Z,10.10
2018-01-24T18:12:42.425Z,10.00
2018-01-24T18:15:10.930Z,10.00
2018-01-24T18:17:40.301Z,10.10
2018-01-24T18:20:08.995Z,10.00
2018-01-24T18:22:37.533Z,10.00
2018-01-24T18:25:06.080Z,10.00
2018-01-24T18:27:34.606Z,10.00
2018-01-24T18:30:03.090Z,9.90
2018-01-24T18:32:31.702Z,9.90
2018-01-24T18:35:00.244Z,9.90
2018-01-24T18:37:28.749Z,9.90
2018-01-24T18:39:57.286Z,9.90
2018-01-24T18:42:25.834Z,9.90
2018-01-24T18:44:54.349Z,10.00
2018-01-24T18:47:23.636Z,9.90
2018-01-24T18:49:52.953Z,10.00
2018-01-24T18:52:21.457Z,10.00
2018-01-24T18:54:50.034Z,10.10
2018-01-24T18:57:18.567Z,10.20
2018-01-24T18:59:47.095Z,10.20
2018-01-24T19:02:15.673Z,10.20
2018-01-24T19:04:44.209Z,10.20
2018-01-24T19:07:12.770Z,10.10
2018-01-24T19:09:41.331Z,10.10
2018-01-24T19:12:09.892Z,10.10
2018-01-24T19:14:38.411Z,10.10
2018-01-24T19:17:06.958Z,10.10
2018-01-24T19:19:36.275Z,10.10
2018-01-24T19:22:04.777Z,10.10
2018-01-24T19:24:33.323Z,10.10
2018-01-24T19:27:02.642Z,10.20
2018-01-24T19:29:31.153Z,10.20
2018-01-24T19:31:59.687Z,10.20
2018-01-24T19:34:28.988Z,10.40
2018-01-24T19:36:57.482Z,10.40
2018-01-24T19:39:26.030Z,10.40
2018-01-24T19:41:54.591Z,10.50
2018-01-24T19:44:23.122Z,10.60
2018-01-24T19:46:53.341Z,10.70
2018-01-24T19:49:21.879Z,10.80
2018-01-24T19:51:50.402Z,10.80
2018-01-24T19:54:19.694Z,10.80
2018-01-24T19:56:49.057Z,10.80
2018-01-24T19:59:17.598Z,10.80
2018-01-24T20:01:46.130Z,10.80
2018-01-24T20:04:14.727Z,10.80
2018-01-24T20:06:44.034Z,10.80
2018-01-24T20:09:13.338Z,10.90
2018-01-24T20:11:42.659Z,10.80
2018-01-24T20:14:11.173Z,10.80
2018-01-24T20:16:39.736Z,10.70
2018-01-24T20:19:08.314Z,10.70
2018-01-24T20:21:36.805Z,10.80
2018-01-24T20:24:05.418Z,10.80
2018-01-24T20:26:33.986Z,10.80
2018-01-24T20:29:02.560Z,10.80
2018-01-24T20:31:31.165Z,10.70
2018-01-24T20:33:59.678Z,10.90
2018-01-24T20:36:28.214Z,10.80
2018-01-24T20:38:56.743Z,10.90
2018-01-24T20:41:26.029Z,10.90
2018-01-24T20:43:54.522Z,10.90
2018-01-24T20:46:23.065Z,10.90
2018-01-24T20:48:51.357Z,11.00
2018-01-24T20:51:19.892Z,11.00
2018-01-24T20:53:48.450Z,11.00
2018-01-24T20:56:17.766Z,11.00
2018-01-24T20:58:46.282Z,11.00
2018-01-24T21:01:14.867Z,10.90
2018-01-24T21:03:43.238Z,11.00
2018-01-24T21:06:11.750Z,11.00
2018-01-24T21:08:40.329Z,11.10
2018-01-24T21:11:08.853Z,11.10
2018-01-24T21:13:38.097Z,11.10
2018-01-24T21:16:06.633Z,11.10
2018-01-24T21:18:35.923Z,11.20
2018-01-24T21:21:05.202Z,11.10
2018-01-24T21:23:33.756Z,11.10
2018-01-24T21:26:02.288Z,11.20
2018-01-24T21:28:42.640Z,11.10
2018-01-24T21:31:22.433Z,11.10
2018-01-24T21:33:51.307Z,11.10
2018-01-24T21:36:30.897Z,11.00
2018-01-24T21:38:59.478Z,11.00
2018-01-24T21:41:28.047Z,11.00
2018-01-24T21:43:56.620Z,10.90
2018-01-24T21:46:25.194Z,10.80
2018-01-24T21:48:53.771Z,10.80
2018-01-24T21:51:22.349Z,10.70
2018-01-24T21:53:50.899Z,10.70
2018-01-24T21:56:19.505Z,10.70
2018-01-24T21:58:48.029Z,10.70
2018-01-24T22:01:16.590Z,10.60
2018-01-24T22:03:45.137Z,10.50
2018-01-24T22:06:14.462Z,10.30
2018-01-24T22:08:43.031Z,10.40
2018-01-24T22:11:12.356Z,10.30
2018-01-24T22:13:40.883Z,10.30
2018-01-24T22:16:09.154Z,10.30
2018-01-24T22:18:37.710Z,10.30
2018-01-24T22:21:06.255Z,10.40
2018-01-24T22:23:35.589Z,10.60
2018-01-24T22:26:03.972Z,10.50
2018-01-24T22:28:32.468Z,10.60
2018-01-24T22:31:01.042Z,10.60
2018-01-24T22:33:29.618Z,10.60
2018-01-24T22:35:57.989Z,10.60
2018-01-24T22:38:26.533Z,10.60
2018-01-24T22:40:55.833Z,10.60
2018-01-24T22:43:25.159Z,10.60
2018-01-24T22:45:53.550Z,10.60
2018-01-24T22:48:22.106Z,10.50
2018-01-24T22:50:51.378Z,10.60
2018-01-24T22:53:19.945Z,10.60
2018-01-24T22:55:48.344Z,10.60
2018-01-24T22:58:16.870Z,10.60
2018-01-24T23:00:45.392Z,10.50
2018-01-24T23:03:13.910Z,10.60
2018-01-24T23:05:42.499Z,10.60
2018-01-24T23:08:11.052Z,10.60
2018-01-24T23:10:39.634Z,10.50
2018-01-24T23:13:08.913Z,10.50
2018-01-24T23:15:37.498Z,10.50
2018-01-24T23:18:06.076Z,10.40
2018-01-24T23:20:34.587Z,10.40
2018-01-24T23:23:03.951Z,10.40
2018-01-24T23:25:32.521Z,10.40
2018-01-24T23:28:01.111Z,10.30
2018-01-24T23:30:29.677Z,10.40
2018-01-24T23:32:58.226Z,10.40
2018-01-24T23:35:26.786Z,10.50
2018-01-24T23:37:55.323Z,10.50
2018-01-24T23:40:23.901Z,10.60
2018-01-24T23:42:52.445Z,10.60
2018-01-24T23:45:21.006Z,10.60
2018-01-24T23:47:49.562Z,10.60
2018-01-24T23:50:18.074Z,10.50
2018-01-24T23:52:46.630Z,10.60
2018-01-24T23:55:15.240Z,10.70
2018-01-24T23:57:43.811Z,10.70
